createdAt,value
2023-04-20T00:00:22.296Z,95722.47
2023-04-20T00:02:50.981Z,95724.69
2023-04-20T00:05:19.452Z,95713.09
2023-04-20T00:07:48.877Z,95696.38
2023-04-20T00:10:18.685Z,95647.56
2023-04-20T00:12:48.813Z,95668.44
2023-04-20T00:15:17.367Z,95711.72
2023-04-20T00:17:46.843Z,95704.63
2023-04-20T00:20:16.639Z,95699.16
2023-04-20T00:22:45.387Z,95664.84
2023-04-20T00:25:14.969Z,95697.78
2023-04-20T00:27:45.999Z,95691.06
2023-04-20T00:30:17.086Z,95668.78
2023-04-20T00:32:46.904Z,95685.97
2023-04-20T00:35:15.780Z,95689.66
2023-04-20T00:37:44.301Z,95681.66
2023-04-20T00:40:13.361Z,95685.81
2023-04-20T00:42:42.432Z,95669.16
2023-04-20T00:45:12.687Z,95690.13
2023-04-20T00:47:42.941Z,95676.44
2023-04-20T00:50:12.979Z,95681.41
2023-04-20T00:52:45.634Z,95686.16
2023-04-20T00:55:14.339Z,95670.38
2023-04-20T00:57:43.021Z,95671.31
2023-04-20T01:00:13.402Z,95676.63
2023-04-20T01:02:43.189Z,95672.31
2023-04-20T01:05:12.210Z,95667.38
2023-04-20T01:07:40.576Z,95673.63
2023-04-20T01:10:11.709Z,95674.09
2023-04-20T01:12:39.995Z,95666.09
2023-04-20T01:15:09.957Z,95664.34
2023-04-20T01:17:40.177Z,95658.75
2023-04-20T01:20:12.671Z,95658.50
2023-04-20T01:22:50.041Z,95646.56
2023-04-20T01:25:20.825Z,95649.66
2023-04-20T01:27:49.640Z,95647.41
2023-04-20T01:30:18.473Z,95639.75
2023-04-20T01:32:47.017Z,95648.69
2023-04-20T01:35:18.189Z,95657.69
2023-04-20T01:37:46.842Z,95652.50
2023-04-20T01:40:17.351Z,95655.88
2023-04-20T01:42:45.842Z,95647.00
2023-04-20T01:45:14.149Z,95645.53
2023-04-20T01:47:43.793Z,95623.03
2023-04-20T01:50:12.998Z,95634.75
2023-04-20T01:52:41.323Z,95635.13
2023-04-20T01:55:11.927Z,95633.63
2023-04-20T01:57:41.949Z,95636.75
2023-04-20T02:00:11.308Z,95637.19
2023-04-20T02:02:40.257Z,95627.38
2023-04-20T02:05:10.729Z,95628.75
2023-04-20T02:07:40.031Z,95627.69
2023-04-20T02:10:09.333Z,95610.66
2023-04-20T02:12:37.808Z,95633.75
2023-04-20T02:15:09.930Z,95616.59
2023-04-20T02:17:38.644Z,95624.94
2023-04-20T02:20:09.383Z,95623.09
2023-04-20T02:22:38.070Z,95612.78
2023-04-20T02:25:12.885Z,95617.88
2023-04-20T02:27:42.728Z,95630.06
2023-04-20T02:30:13.491Z,95629.00
2023-04-20T02:32:42.465Z,95607.78
2023-04-20T02:35:12.739Z,95623.09
2023-04-20T02:37:41.786Z,95625.75
2023-04-20T02:40:13.759Z,95617.19
2023-04-20T02:42:44.777Z,95609.06
2023-04-20T02:45:14.883Z,95613.47
2023-04-20T02:47:43.771Z,95608.75
2023-04-20T02:50:12.783Z,95621.00
2023-04-20T02:52:41.272Z,95612.00
2023-04-20T02:55:10.288Z,95608.28
2023-04-20T02:57:38.866Z,95607.47
2023-04-20T03:00:09.547Z,95589.63
2023-04-20T03:02:39.985Z,95612.44
2023-04-20T03:05:10.802Z,95546.25
2023-04-20T03:07:39.562Z,95608.94
2023-04-20T03:10:09.876Z,95606.28
2023-04-20T03:12:38.287Z,95609.50
2023-04-20T03:15:08.274Z,95604.78
2023-04-20T03:17:37.583Z,95604.34
2023-04-20T03:20:10.225Z,95592.75
2023-04-20T03:22:38.836Z,95603.88
2023-04-20T03:25:08.170Z,95605.47
2023-04-20T03:27:37.011Z,95610.81
2023-04-20T03:30:06.261Z,95610.34
2023-04-20T03:32:34.687Z,95617.88
2023-04-20T03:35:03.052Z,95610.72
2023-04-20T03:37:33.348Z,95611.53
2023-04-20T03:40:01.696Z,95615.56
2023-04-20T03:42:30.746Z,95625.66
2023-04-20T03:45:00.796Z,95614.41
2023-04-20T03:47:29.355Z,95600.16
2023-04-20T03:49:58.194Z,95604.69
2023-04-20T03:52:26.502Z,95612.44
2023-04-20T03:54:56.202Z,95605.03
2023-04-20T03:57:24.964Z,95597.63
2023-04-20T03:59:53.604Z,95593.78
2023-04-20T04:02:23.086Z,95607.56
2023-04-20T04:04:51.479Z,95583.22
2023-04-20T04:07:20.031Z,95615.00
2023-04-20T04:09:49.765Z,95615.00
2023-04-20T04:12:19.716Z,95614.16
2023-04-20T04:14:48.276Z,95610.22
2023-04-20T04:17:17.146Z,95607.78
2023-04-20T04:19:46.101Z,95618.44
2023-04-20T04:22:14.365Z,95606.16
2023-04-20T04:24:43.169Z,95607.31
2023-04-20T04:27:14.687Z,95613.13
2023-04-20T04:29:45.292Z,95619.34
2023-04-20T04:32:14.381Z,95618.91
2023-04-20T04:34:44.400Z,95611.13
2023-04-20T04:37:13.283Z,95586.28
2023-04-20T04:39:42.340Z,95620.50
2023-04-20T04:42:10.873Z,95601.38
2023-04-20T04:44:40.194Z,95620.84
2023-04-20T04:47:12.192Z,95605.78
2023-04-20T04:49:41.850Z,95616.44
2023-04-20T04:52:11.026Z,95613.34
2023-04-20T04:54:39.524Z,95613.81
2023-04-20T04:57:08.094Z,95609.00
2023-04-20T04:59:36.411Z,95623.63
2023-04-20T05:02:05.006Z,95622.59
2023-04-20T05:04:35.119Z,95626.44
2023-04-20T05:07:03.417Z,95621.69
2023-04-20T05:09:33.707Z,95583.19
2023-04-20T05:12:03.494Z,95623.66
2023-04-20T05:14:33.787Z,95554.25
2023-04-20T05:17:03.595Z,95586.13
2023-04-20T05:19:32.207Z,95632.13
2023-04-20T05:22:02.878Z,95547.28
2023-04-20T05:24:31.379Z,95626.47
2023-04-20T05:27:00.223Z,95640.00
2023-04-20T05:29:29.691Z,95620.06
2023-04-20T05:31:58.217Z,95638.25
2023-04-20T05:34:28.395Z,95580.91
2023-04-20T05:36:57.553Z,95567.34
2023-04-20T05:39:27.846Z,95649.19
2023-04-20T05:41:56.104Z,95644.88
2023-04-20T05:44:24.406Z,95646.28
2023-04-20T05:46:54.392Z,95646.16
2023-04-20T05:49:23.374Z,95649.88
2023-04-20T05:51:53.817Z,95635.31
2023-04-20T05:54:22.970Z,95632.44
2023-04-20T05:56:53.010Z,95632.34
2023-04-20T05:59:21.957Z,95648.31
2023-04-20T06:01:50.266Z,95650.41
2023-04-20T06:04:19.378Z,95659.66
2023-04-20T06:06:47.955Z,95670.31
2023-04-20T06:09:17.072Z,95620.94
2023-04-20T06:11:45.523Z,95645.06
2023-04-20T06:14:16.071Z,95669.72
2023-04-20T06:16:45.774Z,95670.66
2023-04-20T06:19:14.605Z,95665.63
2023-04-20T06:21:43.551Z,95671.88
2023-04-20T06:24:12.107Z,95667.13
2023-04-20T06:26:41.150Z,95667.84
2023-04-20T06:29:09.629Z,95670.16
2023-04-20T06:31:40.851Z,95668.44
2023-04-20T06:34:09.403Z,95681.31
2023-04-20T06:36:37.698Z,95681.19
2023-04-20T06:39:06.097Z,95680.00
2023-04-20T06:41:34.802Z,95686.16
2023-04-20T06:44:03.455Z,95681.88
2023-04-20T06:46:32.075Z,95684.53
2023-04-20T06:49:02.057Z,95622.28
2023-04-20T06:51:31.335Z,95688.94
2023-04-20T06:53:59.918Z,95634.38
2023-04-20T06:56:28.512Z,95689.31
2023-04-20T06:58:57.075Z,95681.31
2023-04-20T07:01:25.366Z,95679.00
2023-04-20T07:03:54.044Z,95682.03
2023-04-20T07:06:26.833Z,95687.47
2023-04-20T07:08:55.160Z,95704.28
2023-04-20T07:11:25.413Z,95683.66
2023-04-20T07:13:54.023Z,95689.56
2023-04-20T07:16:23.895Z,95683.28
2023-04-20T07:18:52.186Z,95678.06
2023-04-20T07:21:21.500Z,95676.56
2023-04-20T07:23:51.196Z,95672.50
2023-04-20T07:26:20.946Z,95679.22
2023-04-20T07:28:49.221Z,95679.69
2023-04-20T07:31:17.964Z,95677.94
2023-04-20T07:33:46.352Z,95683.16
2023-04-20T07:36:14.909Z,95681.97
2023-04-20T07:38:43.548Z,95679.66
2023-04-20T07:41:14.318Z,95675.03
2023-04-20T07:43:42.894Z,95690.81
2023-04-20T07:46:11.503Z,95687.56
2023-04-20T07:48:40.084Z,95688.13
2023-04-20T07:51:08.440Z,95691.59
2023-04-20T07:53:37.297Z,95695.09
2023-04-20T07:56:06.927Z,95685.00
2023-04-20T07:58:39.431Z,95701.00
2023-04-20T08:01:08.900Z,95700.06
2023-04-20T08:03:38.052Z,95696.78
2023-04-20T08:06:08.090Z,95701.16
2023-04-20T08:08:36.389Z,95698.84
2023-04-20T08:11:08.415Z,95698.13
2023-04-20T08:13:38.956Z,95705.56
2023-04-20T08:16:07.904Z,95702.31
2023-04-20T08:18:36.181Z,95695.25
2023-04-20T08:21:04.992Z,95697.91
2023-04-20T08:23:33.273Z,95701.63
2023-04-20T08:26:02.210Z,95710.22
2023-04-20T08:28:33.769Z,95702.56
2023-04-20T08:31:05.080Z,95707.44
2023-04-20T08:33:34.081Z,95679.53
2023-04-20T08:36:02.836Z,95691.94
2023-04-20T08:38:34.419Z,95674.75
2023-04-20T08:41:02.899Z,95695.38
2023-04-20T08:43:31.528Z,95691.84
2023-04-20T08:46:03.234Z,95693.31
2023-04-20T08:48:38.216Z,95685.72
2023-04-20T08:51:07.336Z,95685.88
2023-04-20T08:53:35.783Z,95666.44
2023-04-20T08:56:06.886Z,95690.84
2023-04-20T08:58:35.459Z,95689.94
2023-04-20T09:01:05.345Z,95686.19
2023-04-20T09:03:41.016Z,95699.97
2023-04-20T09:06:17.904Z,95679.41
2023-04-20T09:08:47.542Z,95696.16
2023-04-20T09:11:26.911Z,95697.38
2023-04-20T09:14:02.427Z,95679.06
2023-04-20T09:16:31.941Z,95693.66
2023-04-20T09:19:02.082Z,95693.00
2023-04-20T09:21:31.525Z,95690.91
2023-04-20T09:24:01.695Z,95580.34
2023-04-20T09:26:34.110Z,95682.78
2023-04-20T09:29:04.046Z,95688.34
2023-04-20T09:31:32.394Z,95692.16
2023-04-20T09:34:05.897Z,95669.41
2023-04-20T09:36:39.136Z,95676.03
2023-04-20T09:39:10.109Z,95687.25
2023-04-20T09:41:39.970Z,95660.66
2023-04-20T09:44:09.925Z,95678.16
2023-04-20T09:46:39.722Z,95628.84
2023-04-20T09:49:11.485Z,95663.69
2023-04-20T09:51:42.173Z,95643.34
2023-04-20T09:54:11.796Z,95664.72
2023-04-20T09:56:41.204Z,95664.50
2023-04-20T09:59:09.806Z,95664.84
2023-04-20T10:01:39.004Z,95660.75
2023-04-20T10:04:13.370Z,95657.31
2023-04-20T10:06:53.362Z,95592.78
2023-04-20T10:09:25.056Z,95655.78
2023-04-20T10:11:56.153Z,95658.00
2023-04-20T10:14:27.675Z,95652.56
2023-04-20T10:17:04.146Z,95659.34
2023-04-20T10:19:41.882Z,95557.31
2023-04-20T10:22:11.670Z,95645.16
2023-04-20T10:24:40.936Z,95649.97
2023-04-20T10:27:20.025Z,95647.91
2023-04-20T10:29:49.109Z,95655.81
2023-04-20T10:32:25.311Z,95648.31
2023-04-20T10:35:07.092Z,95646.19
2023-04-20T10:37:36.492Z,95650.03
2023-04-20T10:40:07.938Z,95647.25
2023-04-20T10:42:44.006Z,95650.16
2023-04-20T10:45:13.711Z,95642.66
2023-04-20T10:47:42.937Z,95634.53
2023-04-20T10:50:15.064Z,95632.44
2023-04-20T10:52:46.404Z,95641.75
2023-04-20T10:55:21.676Z,95622.41
2023-04-20T10:57:50.464Z,95631.97
2023-04-20T11:00:20.614Z,95641.53
2023-04-20T11:02:51.150Z,95649.50
2023-04-20T11:05:23.045Z,95642.97
2023-04-20T11:07:55.203Z,95622.31
2023-04-20T11:10:27.235Z,95578.13
2023-04-20T11:12:57.098Z,95575.56
2023-04-20T11:15:33.680Z,95638.41
2023-04-20T11:18:09.892Z,95635.16
2023-04-20T11:20:40.210Z,95629.72
2023-04-20T11:23:08.573Z,95629.72
2023-04-20T11:25:37.259Z,95627.31
2023-04-20T11:28:10.284Z,95622.78
2023-04-20T11:30:44.014Z,95635.66
2023-04-20T11:33:14.442Z,95638.38
2023-04-20T11:35:47.221Z,95611.56
2023-04-20T11:38:16.532Z,95626.00
2023-04-20T11:40:45.117Z,95612.19
2023-04-20T11:43:13.962Z,95620.59
2023-04-20T11:45:43.990Z,95625.44
2023-04-20T11:48:12.980Z,95628.31
2023-04-20T11:50:42.697Z,95622.06
2023-04-20T11:53:14.875Z,95616.78
2023-04-20T11:55:44.518Z,95597.06
2023-04-20T11:58:12.763Z,95584.41
2023-04-20T12:00:41.341Z,95617.78
2023-04-20T12:03:10.180Z,95615.69
2023-04-20T12:05:38.577Z,95594.06
2023-04-20T12:08:08.435Z,95605.72
2023-04-20T12:10:40.419Z,95598.06
2023-04-20T12:13:08.679Z,95603.13
2023-04-20T12:15:36.997Z,95601.63
2023-04-20T12:18:06.519Z,95601.72
2023-04-20T12:20:35.285Z,95599.78
2023-04-20T12:23:04.172Z,95572.50
2023-04-20T12:25:33.154Z,95595.72
2023-04-20T12:28:06.953Z,95573.88
2023-04-20T12:30:37.068Z,95585.09
2023-04-20T12:33:07.110Z,95590.31
2023-04-20T12:35:35.461Z,95490.25
2023-04-20T12:38:04.149Z,95575.56
2023-04-20T12:40:32.635Z,95572.63
2023-04-20T12:43:04.071Z,95567.81
2023-04-20T12:45:32.909Z,95572.19
2023-04-20T12:48:02.066Z,95572.63
2023-04-20T12:50:30.517Z,95587.53
2023-04-20T12:52:58.987Z,95562.81
2023-04-20T12:55:28.315Z,95536.56
2023-04-20T12:57:56.934Z,95569.09
2023-04-20T13:00:27.353Z,95567.97
2023-04-20T13:02:56.682Z,95568.66
2023-04-20T13:05:26.176Z,95560.25
2023-04-20T13:07:54.468Z,95569.66
2023-04-20T13:10:23.285Z,95561.50
2023-04-20T13:12:52.702Z,95571.91
2023-04-20T13:15:31.983Z,95563.00
2023-04-20T13:18:10.149Z,95549.69
2023-04-20T13:20:38.579Z,95518.28
2023-04-20T13:23:06.906Z,95567.09
2023-04-20T13:25:36.234Z,95570.03
2023-04-20T13:28:05.778Z,95531.94
2023-04-20T13:30:34.198Z,95561.38
2023-04-20T13:33:03.090Z,95558.44
2023-04-20T13:35:33.230Z,95555.63
2023-04-20T13:38:02.457Z,95551.38
2023-04-20T13:40:31.226Z,95555.22
2023-04-20T13:43:00.144Z,95540.59
2023-04-20T13:45:30.269Z,95543.00
2023-04-20T13:47:58.662Z,95547.25
2023-04-20T13:50:28.092Z,95543.16
2023-04-20T13:52:58.073Z,95534.22
2023-04-20T13:55:27.212Z,95550.63
2023-04-20T13:57:56.126Z,95554.09
2023-04-20T14:00:26.330Z,95527.16
2023-04-20T14:02:55.269Z,95552.44
2023-04-20T14:05:26.023Z,95551.84
2023-04-20T14:07:54.343Z,95547.59
2023-04-20T14:10:24.501Z,95550.44
2023-04-20T14:12:52.824Z,95550.88
2023-04-20T14:15:22.175Z,95509.34
2023-04-20T14:17:52.438Z,95555.13
2023-04-20T14:20:21.388Z,95551.13
2023-04-20T14:22:50.293Z,95532.44
2023-04-20T14:25:19.050Z,95557.09
2023-04-20T14:27:50.205Z,95556.97
2023-04-20T14:30:18.545Z,95547.13
2023-04-20T14:32:56.255Z,95539.78
2023-04-20T14:35:26.216Z,95547.44
2023-04-20T14:37:55.606Z,95549.69
2023-04-20T14:40:24.030Z,95545.31
2023-04-20T14:42:54.221Z,95556.44
2023-04-20T14:45:22.657Z,95562.31
2023-04-20T14:47:55.241Z,95554.16
2023-04-20T14:50:24.352Z,95548.88
2023-04-20T14:52:55.183Z,95544.63
2023-04-20T14:55:26.297Z,95545.63
2023-04-20T14:57:58.036Z,95558.06
2023-04-20T15:00:30.141Z,95551.59
2023-04-20T15:02:59.815Z,95552.16
2023-04-20T15:05:30.383Z,95544.63
2023-04-20T15:07:59.119Z,95547.38
2023-04-20T15:10:28.113Z,95549.00
2023-04-20T15:13:00.117Z,95547.88
2023-04-20T15:15:37.676Z,95536.59
2023-04-20T15:18:17.081Z,95531.38
2023-04-20T15:20:45.675Z,95527.31
2023-04-20T15:23:14.477Z,95521.63
2023-04-20T15:25:43.262Z,95513.09
2023-04-20T15:28:15.135Z,95520.19
2023-04-20T15:30:44.373Z,95519.13
2023-04-20T15:33:12.712Z,95512.72
2023-04-20T15:35:42.210Z,95522.00
2023-04-20T15:38:11.194Z,95516.75
2023-04-20T15:40:40.128Z,95464.63
2023-04-20T15:43:09.146Z,95497.63
2023-04-20T15:45:38.918Z,95514.31
2023-04-20T15:48:07.624Z,95519.03
2023-04-20T15:50:37.192Z,95523.34
2023-04-20T15:53:06.493Z,95454.81
2023-04-20T15:55:36.391Z,95482.06
2023-04-20T15:58:05.129Z,95482.66
2023-04-20T16:00:34.242Z,95521.16
2023-04-20T16:03:05.510Z,95526.28
2023-04-20T16:05:34.197Z,95538.69
2023-04-20T16:08:04.084Z,95534.25
2023-04-20T16:10:32.583Z,95533.22
2023-04-20T16:13:00.870Z,95530.97
2023-04-20T16:15:30.369Z,95520.69
2023-04-20T16:18:02.173Z,95525.44
2023-04-20T16:20:33.082Z,95520.47
2023-04-20T16:23:01.348Z,95533.31
2023-04-20T16:25:31.100Z,95532.00
2023-04-20T16:28:00.595Z,95492.59
2023-04-20T16:30:28.917Z,95527.84
2023-04-20T16:33:01.197Z,95529.28
2023-04-20T16:35:30.124Z,95530.03
2023-04-20T16:38:01.196Z,95528.44
2023-04-20T16:40:29.464Z,95525.81
2023-04-20T16:42:58.040Z,95540.03
2023-04-20T16:45:27.046Z,95552.72
2023-04-20T16:47:56.321Z,95529.47
2023-04-20T16:50:24.964Z,95536.66
2023-04-20T16:52:53.211Z,95532.72
2023-04-20T16:55:24.449Z,95530.53
2023-04-20T16:57:59.789Z,95522.72
2023-04-20T17:00:30.116Z,95534.22
2023-04-20T17:03:01.785Z,95534.03
2023-04-20T17:05:31.554Z,95531.91
2023-04-20T17:08:01.587Z,95534.59
2023-04-20T17:10:32.086Z,95529.78
2023-04-20T17:13:00.450Z,95534.84
2023-04-20T17:15:29.620Z,95516.06
2023-04-20T17:17:57.977Z,95534.34
2023-04-20T17:20:27.448Z,95530.19
2023-04-20T17:22:57.013Z,95533.72
2023-04-20T17:25:25.898Z,95505.50
2023-04-20T17:27:57.715Z,95540.66
2023-04-20T17:30:26.066Z,95544.19
2023-04-20T17:32:58.416Z,95535.94
2023-04-20T17:35:26.865Z,95538.16
2023-04-20T17:37:55.156Z,95529.00
2023-04-20T17:40:28.069Z,95533.63
2023-04-20T17:42:58.854Z,95527.00
2023-04-20T17:45:30.214Z,95534.94
2023-04-20T17:47:59.262Z,95539.72
2023-04-20T17:50:27.669Z,95544.81
2023-04-20T17:52:56.139Z,95521.47
2023-04-20T17:55:25.646Z,95552.72
2023-04-20T17:57:53.978Z,95541.78
2023-04-20T18:00:26.295Z,95559.69
2023-04-20T18:02:54.727Z,95546.19
2023-04-20T18:05:23.720Z,95565.25
2023-04-20T18:07:52.037Z,95545.00
2023-04-20T18:10:20.844Z,95555.13
2023-04-20T18:12:51.165Z,95575.44
2023-04-20T18:15:19.468Z,95587.22
2023-04-20T18:17:51.359Z,95577.56
2023-04-20T18:20:21.289Z,95590.69
2023-04-20T18:22:52.347Z,95565.19
2023-04-20T18:25:21.235Z,95591.16
2023-04-20T18:27:50.291Z,95591.69
2023-04-20T18:30:20.199Z,95592.00
2023-04-20T18:32:49.960Z,95604.09
2023-04-20T18:35:19.479Z,95593.44
2023-04-20T18:37:48.745Z,95602.81
2023-04-20T18:40:17.084Z,95590.88
2023-04-20T18:42:45.367Z,95576.75
2023-04-20T18:45:14.220Z,95570.22
2023-04-20T18:47:43.235Z,95606.91
2023-04-20T18:50:14.284Z,95589.75
2023-04-20T18:52:42.771Z,95592.97
2023-04-20T18:55:12.505Z,95587.88
2023-04-20T18:57:41.910Z,95471.13
2023-04-20T19:00:11.232Z,95590.06
2023-04-20T19:02:41.311Z,95583.84
2023-04-20T19:05:10.098Z,95354.78
2023-04-20T19:07:40.467Z,95584.44
2023-04-20T19:10:10.698Z,95557.25
2023-04-20T19:12:39.009Z,95584.22
2023-04-20T19:15:09.394Z,95562.63
2023-04-20T19:17:39.175Z,95585.25
2023-04-20T19:20:09.561Z,95581.53
2023-04-20T19:22:39.884Z,95577.00
2023-04-20T19:25:10.282Z,95588.25
2023-04-20T19:27:41.240Z,95575.66
2023-04-20T19:30:11.573Z,95574.63
2023-04-20T19:32:40.180Z,95582.97
2023-04-20T19:35:10.369Z,95567.81
2023-04-20T19:37:42.423Z,95584.09
2023-04-20T19:40:11.019Z,95576.88
2023-04-20T19:42:40.640Z,95579.56
2023-04-20T19:45:15.222Z,95578.75
2023-04-20T19:47:44.907Z,95566.13
2023-04-20T19:50:17.557Z,95572.34
2023-04-20T19:52:49.024Z,95574.19
2023-04-20T19:55:19.855Z,95579.56
2023-04-20T19:57:49.837Z,95578.22
2023-04-20T20:00:20.393Z,95533.53
2023-04-20T20:02:50.002Z,95583.91
2023-04-20T20:05:20.694Z,95552.81
2023-04-20T20:07:53.557Z,95484.59
2023-04-20T20:10:24.060Z,95578.53
2023-04-20T20:12:55.824Z,95351.38
2023-04-20T20:15:25.604Z,95582.59
2023-04-20T20:17:57.574Z,95579.41
2023-04-20T20:20:30.795Z,95585.31
2023-04-20T20:23:03.814Z,95591.47
2023-04-20T20:25:35.150Z,95579.94
2023-04-20T20:28:07.841Z,95562.16
2023-04-20T20:30:37.181Z,95573.00
2023-04-20T20:33:07.113Z,95562.78
2023-04-20T20:35:38.801Z,95545.97
2023-04-20T20:38:11.307Z,95631.47
2023-04-20T20:40:42.880Z,95468.72
2023-04-20T20:43:14.340Z,95589.16
2023-04-20T20:45:44.780Z,95585.41
2023-04-20T20:48:13.137Z,95577.69
2023-04-20T20:50:44.676Z,95489.97
2023-04-20T20:53:15.752Z,95439.56
2023-04-20T20:55:45.325Z,95583.91
2023-04-20T20:58:19.752Z,95580.59
2023-04-20T21:00:50.946Z,95566.16
2023-04-20T21:03:20.656Z,95371.69
2023-04-20T21:05:51.908Z,95552.66
2023-04-20T21:08:23.117Z,95504.91
2023-04-20T21:10:52.483Z,95579.38
2023-04-20T21:13:22.085Z,95575.63
2023-04-20T21:15:51.724Z,95586.34
2023-04-20T21:18:22.048Z,95580.22
2023-04-20T21:20:51.602Z,95418.75
2023-04-20T21:23:23.694Z,95472.78
2023-04-20T21:25:54.806Z,95572.44
2023-04-20T21:28:26.675Z,95571.94
2023-04-20T21:30:55.188Z,95334.06
2023-04-20T21:33:25.339Z,95542.03
2023-04-20T21:35:57.076Z,95552.81
2023-04-20T21:38:30.664Z,95559.81
2023-04-20T21:41:00.387Z,95572.44
2023-04-20T21:43:30.511Z,95503.13
2023-04-20T21:45:58.901Z,95554.97
2023-04-20T21:48:27.216Z,95562.50
2023-04-20T21:50:56.523Z,95576.78
2023-04-20T21:53:25.031Z,95562.22
2023-04-20T21:55:55.153Z,95311.56
2023-04-20T21:58:25.763Z,95589.94
2023-04-20T22:00:54.132Z,95452.38
2023-04-20T22:03:24.332Z,95519.97
2023-04-20T22:05:52.781Z,95559.38
2023-04-20T22:08:26.183Z,95567.94
2023-04-20T22:10:58.393Z,95563.09
2023-04-20T22:13:26.787Z,95561.22
2023-04-20T22:15:56.599Z,95482.28
2023-04-20T22:18:24.980Z,95503.84
2023-04-20T22:20:53.886Z,95560.97
2023-04-20T22:23:22.185Z,95556.66
2023-04-20T22:25:51.374Z,95555.84
2023-04-20T22:28:21.709Z,95524.84
2023-04-20T22:30:52.353Z,95554.28
2023-04-20T22:33:21.502Z,95549.16
2023-04-20T22:35:50.380Z,95552.94
2023-04-20T22:38:18.668Z,95428.44
2023-04-20T22:40:48.449Z,95528.06
2023-04-20T22:43:17.289Z,95559.88
2023-04-20T22:45:48.383Z,95557.19
2023-04-20T22:48:17.722Z,95516.06
2023-04-20T22:50:46.074Z,95552.38
2023-04-20T22:53:14.645Z,95554.50
2023-04-20T22:55:44.486Z,95548.06
2023-04-20T22:58:13.674Z,95557.75
2023-04-20T23:00:42.608Z,95548.06
2023-04-20T23:03:12.497Z,95553.44
2023-04-20T23:05:46.335Z,95544.34
2023-04-20T23:08:18.547Z,95551.75
2023-04-20T23:10:47.385Z,95544.78
2023-04-20T23:13:18.590Z,95544.03
2023-04-20T23:15:48.358Z,95545.63
2023-04-20T23:18:18.081Z,95377.38
2023-04-20T23:20:47.464Z,95538.97
2023-04-20T23:23:16.745Z,95504.75
2023-04-20T23:25:46.204Z,95306.28
2023-04-20T23:28:16.390Z,95538.38
2023-04-20T23:30:44.740Z,95510.94
2023-04-20T23:33:14.432Z,95528.69
2023-04-20T23:35:44.813Z,95524.13
2023-04-20T23:38:13.071Z,95520.59
2023-04-20T23:40:41.470Z,95461.25
2023-04-20T23:43:10.774Z,95517.41
2023-04-20T23:45:39.078Z,95511.47
2023-04-20T23:48:07.954Z,95423.69
2023-04-20T23:50:38.625Z,95502.91
2023-04-20T23:53:10.282Z,95508.25
2023-04-20T23:55:39.362Z,95427.94
2023-04-20T23:58:09.461Z,95510.63
